sensor_id;sensor_type;location;lat;lon;timestamp;temperature;humidity
11922;DHT22;6021;51.182;3.160;2023-06-01T00:01:03;13.20;99.90
11922;DHT22;6021;51.182;3.160;2023-06-01T00:03:32;13.10;99.90
11922;DHT22;6021;51.182;3.160;2023-06-01T00:06:00;13.10;99.90
11922;DHT22;6021;51.182;3.160;2023-06-01T00:08:28;13.10;99.90
11922;DHT22;6021;51.182;3.160;2023-06-01T00:10:57;13.10;99.90
11922;DHT22;6021;51.182;3.160;2023-06-01T00:13:26;13.00;99.90
11922;DHT22;6021;51.182;3.160;2023-06-01T00:15:54;13.10;99.90
11922;DHT22;6021;51.182;3.160;2023-06-01T00:18:23;13.00;99.90
11922;DHT22;6021;51.182;3.160;2023-06-01T00:20:53;13.00;99.90
11922;DHT22;6021;51.182;3.160;2023-06-01T00:23:22;13.10;99.90
11922;DHT22;6021;51.182;3.160;2023-06-01T00:25:50;13.10;99.90
11922;DHT22;6021;51.182;3.160;2023-06-01T00:28:18;13.10;99.90
11922;DHT22;6021;51.182;3.160;2023-06-01T00:30:47;13.10;99.90
11922;DHT22;6021;51.182;3.160;2023-06-01T00:33:15;13.00;99.90
11922;DHT22;6021;51.182;3.160;2023-06-01T00:35:43;13.10;99.90
11922;DHT22;6021;51.182;3.160;2023-06-01T00:38:12;13.10;99.90
11922;DHT22;6021;51.182;3.160;2023-06-01T00:40:40;13.00;99.90
11922;DHT22;6021;51.182;3.160;2023-06-01T00:43:10;13.20;99.90
11922;DHT22;6021;51.182;3.160;2023-06-01T00:45:39;13.00;99.90
11922;DHT22;6021;51.182;3.160;2023-06-01T00:48:07;13.00;99.90
11922;DHT22;6021;51.182;3.160;2023-06-01T00:50:35;12.90;99.90
11922;DHT22;6021;51.182;3.160;2023-06-01T00:53:07;12.70;99.90
11922;DHT22;6021;51.182;3.160;2023-06-01T00:55:35;12.90;99.90
11922;DHT22;6021;51.182;3.160;2023-06-01T00:58:04;12.90;99.90
11922;DHT22;6021;51.182;3.160;2023-06-01T01:00:34;13.00;99.90
11922;DHT22;6021;51.182;3.160;2023-06-01T01:03:05;12.90;99.90
11922;DHT22;6021;51.182;3.160;2023-06-01T01:05:36;13.00;99.90
11922;DHT22;6021;51.182;3.160;2023-06-01T01:08:21;12.90;99.90
11922;DHT22;6021;51.182;3.160;2023-06-01T01:10:52;12.70;99.90
11922;DHT22;6021;51.182;3.160;2023-06-01T01:13:34;13.10;99.90
11922;DHT22;6021;51.182;3.160;2023-06-01T01:21:30;12.70;99.90
11922;DHT22;6021;51.182;3.160;2023-06-01T01:24:28;12.80;99.90
11922;DHT22;6021;51.182;3.160;2023-06-01T01:27:01;12.80;99.90
11922;DHT22;6021;51.182;3.160;2023-06-01T01:29:26;12.60;99.90
11922;DHT22;6021;51.182;3.160;2023-06-01T01:31:57;12.80;99.90
11922;DHT22;6021;51.182;3.160;2023-06-01T01:34:27;12.70;99.90
11922;DHT22;6021;51.182;3.160;2023-06-01T01:36:56;12.70;99.90
11922;DHT22;6021;51.182;3.160;2023-06-01T01:39:26;12.80;99.90
11922;DHT22;6021;51.182;3.160;2023-06-01T01:41:54;12.80;99.90
11922;DHT22;6021;51.182;3.160;2023-06-01T01:44:23;12.80;99.90
11922;DHT22;6021;51.182;3.160;2023-06-01T01:47:05;12.80;99.90
11922;DHT22;6021;51.182;3.160;2023-06-01T01:49:43;12.70;99.90
11922;DHT22;6021;51.182;3.160;2023-06-01T01:52:32;12.70;99.90
11922;DHT22;6021;51.182;3.160;2023-06-01T01:55:02;12.70;99.90
11922;DHT22;6021;51.182;3.160;2023-06-01T01:57:31;12.70;99.90
11922;DHT22;6021;51.182;3.160;2023-06-01T02:00:03;12.70;99.90
11922;DHT22;6021;51.182;3.160;2023-06-01T02:02:33;12.90;99.90
11922;DHT22;6021;51.182;3.160;2023-06-01T02:05:02;12.60;99.90
11922;DHT22;6021;51.182;3.160;2023-06-01T02:07:30;12.60;99.90
11922;DHT22;6021;51.182;3.160;2023-06-01T02:10:00;12.60;99.90
11922;DHT22;6021;51.182;3.160;2023-06-01T02:12:29;12.60;99.90
11922;DHT22;6021;51.182;3.160;2023-06-01T02:14:57;12.80;99.90
11922;DHT22;6021;51.182;3.160;2023-06-01T02:17:26;12.60;99.90
11922;DHT22;6021;51.182;3.160;2023-06-01T02:19:54;12.60;99.90
11922;DHT22;6021;51.182;3.160;2023-06-01T02:22:23;12.70;99.90
11922;DHT22;6021;51.182;3.160;2023-06-01T02:24:51;12.80;99.90
11922;DHT22;6021;51.182;3.160;2023-06-01T02:27:19;12.60;99.90
11922;DHT22;6021;51.182;3.160;2023-06-01T02:29:48;12.60;99.90
11922;DHT22;6021;51.182;3.160;2023-06-01T02:32:16;12.70;99.90
11922;DHT22;6021;51.182;3.160;2023-06-01T02:34:44;12.70;99.90
11922;DHT22;6021;51.182;3.160;2023-06-01T02:37:16;12.70;99.90
11922;DHT22;6021;51.182;3.160;2023-06-01T02:39:45;12.70;99.90
11922;DHT22;6021;51.182;3.160;2023-06-01T02:42:14;12.60;99.90
11922;DHT22;6021;51.182;3.160;2023-06-01T02:44:43;12.70;99.90
11922;DHT22;6021;51.182;3.160;2023-06-01T02:47:11;12.60;99.90
11922;DHT22;6021;51.182;3.160;2023-06-01T02:49:39;12.60;99.90
11922;DHT22;6021;51.182;3.160;2023-06-01T02:52:08;12.60;99.90
11922;DHT22;6021;51.182;3.160;2023-06-01T02:54:36;12.70;99.90
11922;DHT22;6021;51.182;3.160;2023-06-01T02:57:04;12.50;99.90
11922;DHT22;6021;51.182;3.160;2023-06-01T02:59:33;12.50;99.90
11922;DHT22;6021;51.182;3.160;2023-06-01T03:02:02;12.50;99.90
11922;DHT22;6021;51.182;3.160;2023-06-01T03:04:33;12.40;99.90
11922;DHT22;6021;51.182;3.160;2023-06-01T03:07:01;12.60;99.90
11922;DHT22;6021;51.182;3.160;2023-06-01T03:09:29;12.60;99.90
11922;DHT22;6021;51.182;3.160;2023-06-01T03:11:58;12.60;99.90
11922;DHT22;6021;51.182;3.160;2023-06-01T03:14:26;12.50;99.90
11922;DHT22;6021;51.182;3.160;2023-06-01T03:16:55;12.50;99.90
11922;DHT22;6021;51.182;3.160;2023-06-01T03:19:23;12.30;99.90
11922;DHT22;6021;51.182;3.160;2023-06-01T03:21:51;12.40;99.90
11922;DHT22;6021;51.182;3.160;2023-06-01T03:24:20;12.40;99.90
11922;DHT22;6021;51.182;3.160;2023-06-01T03:26:50;12.30;99.90
11922;DHT22;6021;51.182;3.160;2023-06-01T03:29:18;12.40;99.90
11922;DHT22;6021;51.182;3.160;2023-06-01T03:31:47;12.40;99.90
11922;DHT22;6021;51.182;3.160;2023-06-01T03:34:16;12.40;99.90
11922;DHT22;6021;51.182;3.160;2023-06-01T03:36:44;12.30;99.90
11922;DHT22;6021;51.182;3.160;2023-06-01T03:39:15;12.40;99.90
11922;DHT22;6021;51.182;3.160;2023-06-01T03:41:43;12.40;99.90
11922;DHT22;6021;51.182;3.160;2023-06-01T03:44:12;12.40;99.90
11922;DHT22;6021;51.182;3.160;2023-06-01T03:46:40;12.50;99.90
11922;DHT22;6021;51.182;3.160;2023-06-01T03:49:10;12.40;99.90
11922;DHT22;6021;51.182;3.160;2023-06-01T03:51:38;12.40;99.90
11922;DHT22;6021;51.182;3.160;2023-06-01T03:54:07;12.40;99.90
11922;DHT22;6021;51.182;3.160;2023-06-01T03:56:36;12.30;99.90
11922;DHT22;6021;51.182;3.160;2023-06-01T03:59:04;12.40;99.90
11922;DHT22;6021;51.182;3.160;2023-06-01T04:01:34;12.30;99.90
11922;DHT22;6021;51.182;3.160;2023-06-01T04:04:03;12.40;99.90
11922;DHT22;6021;51.182;3.160;2023-06-01T04:06:33;12.40;99.90
11922;DHT22;6021;51.182;3.160;2023-06-01T04:09:03;12.30;99.90
11922;DHT22;6021;51.182;3.160;2023-06-01T04:11:36;12.30;99.90
11922;DHT22;6021;51.182;3.160;2023-06-01T04:14:04;12.30;99.90
11922;DHT22;6021;51.182;3.160;2023-06-01T04:16:33;12.30;99.90
11922;DHT22;6021;51.182;3.160;2023-06-01T04:19:02;12.30;99.90
11922;DHT22;6021;51.182;3.160;2023-06-01T04:21:30;12.30;99.90
11922;DHT22;6021;51.182;3.160;2023-06-01T04:23:59;12.50;99.90
11922;DHT22;6021;51.182;3.160;2023-06-01T04:26:27;12.30;99.90
11922;DHT22;6021;51.182;3.160;2023-06-01T04:28:58;12.40;99.90
11922;DHT22;6021;51.182;3.160;2023-06-01T04:31:26;12.20;99.90
11922;DHT22;6021;51.182;3.160;2023-06-01T04:33:55;12.20;99.90
11922;DHT22;6021;51.182;3.160;2023-06-01T04:36:23;12.30;99.90
11922;DHT22;6021;51.182;3.160;2023-06-01T04:38:52;12.30;99.90
11922;DHT22;6021;51.182;3.160;2023-06-01T04:41:24;12.40;99.90
11922;DHT22;6021;51.182;3.160;2023-06-01T04:43:53;12.20;99.90
11922;DHT22;6021;51.182;3.160;2023-06-01T04:46:22;12.40;99.90
11922;DHT22;6021;51.182;3.160;2023-06-01T04:48:55;12.30;99.90
11922;DHT22;6021;51.182;3.160;2023-06-01T04:51:25;12.30;99.90
11922;DHT22;6021;51.182;3.160;2023-06-01T04:53:54;12.00;99.90
11922;DHT22;6021;51.182;3.160;2023-06-01T04:56:24;12.00;99.90
11922;DHT22;6021;51.182;3.160;2023-06-01T04:58:55;12.10;99.90
11922;DHT22;6021;51.182;3.160;2023-06-01T05:01:24;12.20;99.90
11922;DHT22;6021;51.182;3.160;2023-06-01T05:03:53;12.40;99.90
11922;DHT22;6021;51.182;3.160;2023-06-01T05:06:23;12.10;99.90
11922;DHT22;6021;51.182;3.160;2023-06-01T05:08:52;12.30;99.90
11922;DHT22;6021;51.182;3.160;2023-06-01T05:11:20;12.20;99.90
11922;DHT22;6021;51.182;3.160;2023-06-01T05:13:48;12.20;99.90
11922;DHT22;6021;51.182;3.160;2023-06-01T05:16:18;12.10;99.90
11922;DHT22;6021;51.182;3.160;2023-06-01T05:18:46;12.30;99.90
11922;DHT22;6021;51.182;3.160;2023-06-01T05:21:16;12.40;99.90
11922;DHT22;6021;51.182;3.160;2023-06-01T05:23:45;12.10;99.90
11922;DHT22;6021;51.182;3.160;2023-06-01T05:26:13;12.20;99.90
11922;DHT22;6021;51.182;3.160;2023-06-01T05:28:42;12.20;99.90
11922;DHT22;6021;51.182;3.160;2023-06-01T05:31:10;12.20;99.90
11922;DHT22;6021;51.182;3.160;2023-06-01T05:33:39;12.10;99.90
11922;DHT22;6021;51.182;3.160;2023-06-01T05:36:07;12.10;99.90
11922;DHT22;6021;51.182;3.160;2023-06-01T05:38:37;12.40;99.90
11922;DHT22;6021;51.182;3.160;2023-06-01T05:41:06;12.30;99.90
11922;DHT22;6021;51.182;3.160;2023-06-01T05:43:37;12.30;99.90
11922;DHT22;6021;51.182;3.160;2023-06-01T05:46:05;12.10;99.90
11922;DHT22;6021;51.182;3.160;2023-06-01T05:48:34;12.10;99.90
11922;DHT22;6021;51.182;3.160;2023-06-01T05:51:02;12.20;99.90
11922;DHT22;6021;51.182;3.160;2023-06-01T05:53:32;12.30;99.90
11922;DHT22;6021;51.182;3.160;2023-06-01T05:56:01;12.20;99.90
11922;DHT22;6021;51.182;3.160;2023-06-01T05:58:29;12.40;99.90
11922;DHT22;6021;51.182;3.160;2023-06-01T06:00:58;12.20;99.90
11922;DHT22;6021;51.182;3.160;2023-06-01T06:03:26;12.20;99.90
11922;DHT22;6021;51.182;3.160;2023-06-01T06:05:56;12.20;99.90
11922;DHT22;6021;51.182;3.160;2023-06-01T06:08:24;12.20;99.90
11922;DHT22;6021;51.182;3.160;2023-06-01T06:10:53;12.30;99.90
11922;DHT22;6021;51.182;3.160;2023-06-01T06:13:21;12.70;99.90
11922;DHT22;6021;51.182;3.160;2023-06-01T06:15:50;12.60;99.90
11922;DHT22;6021;51.182;3.160;2023-06-01T06:18:18;12.90;99.90
11922;DHT22;6021;51.182;3.160;2023-06-01T06:20:47;12.70;99.90
11922;DHT22;6021;51.182;3.160;2023-06-01T06:23:15;12.80;99.90
11922;DHT22;6021;51.182;3.160;2023-06-01T06:25:45;12.50;99.90
11922;DHT22;6021;51.182;3.160;2023-06-01T06:28:15;12.60;99.90
11922;DHT22;6021;51.182;3.160;2023-06-01T06:30:44;12.70;99.90
11922;DHT22;6021;51.182;3.160;2023-06-01T06:33:12;12.60;99.90
11922;DHT22;6021;51.182;3.160;2023-06-01T06:35:41;12.70;99.90
11922;DHT22;6021;51.182;3.160;2023-06-01T06:38:11;12.80;99.90
11922;DHT22;6021;51.182;3.160;2023-06-01T06:40:40;12.80;99.90
11922;DHT22;6021;51.182;3.160;2023-06-01T06:43:09;12.80;99.90
11922;DHT22;6021;51.182;3.160;2023-06-01T06:45:37;12.70;99.90
11922;DHT22;6021;51.182;3.160;2023-06-01T06:48:05;13.00;99.90
11922;DHT22;6021;51.182;3.160;2023-06-01T06:50:34;13.20;99.90
11922;DHT22;6021;51.182;3.160;2023-06-01T06:53:04;13.10;99.90
11922;DHT22;6021;51.182;3.160;2023-06-01T06:55:32;13.00;99.90
11922;DHT22;6021;51.182;3.160;2023-06-01T06:58:01;13.00;99.90
11922;DHT22;6021;51.182;3.160;2023-06-01T07:00:29;13.00;99.90
11922;DHT22;6021;51.182;3.160;2023-06-01T07:02:57;13.00;99.90
11922;DHT22;6021;51.182;3.160;2023-06-01T07:05:26;12.90;99.90
11922;DHT22;6021;51.182;3.160;2023-06-01T07:07:55;13.00;99.90
11922;DHT22;6021;51.182;3.160;2023-06-01T07:10:23;13.00;99.90
11922;DHT22;6021;51.182;3.160;2023-06-01T07:12:53;13.10;99.90
11922;DHT22;6021;51.182;3.160;2023-06-01T07:15:21;13.10;99.90
11922;DHT22;6021;51.182;3.160;2023-06-01T07:17:49;13.20;99.90
11922;DHT22;6021;51.182;3.160;2023-06-01T07:20:18;13.30;99.90
11922;DHT22;6021;51.182;3.160;2023-06-01T07:22:46;13.30;99.90
11922;DHT22;6021;51.182;3.160;2023-06-01T07:25:16;13.20;99.90
11922;DHT22;6021;51.182;3.160;2023-06-01T07:27:45;13.20;99.90
11922;DHT22;6021;51.182;3.160;2023-06-01T07:30:15;13.20;99.90
11922;DHT22;6021;51.182;3.160;2023-06-01T07:32:43;12.90;99.90
11922;DHT22;6021;51.182;3.160;2023-06-01T07:35:12;13.30;99.90
11922;DHT22;6021;51.182;3.160;2023-06-01T07:37:40;13.20;99.90
11922;DHT22;6021;51.182;3.160;2023-06-01T07:40:09;13.20;99.90
11922;DHT22;6021;51.182;3.160;2023-06-01T07:42:39;13.20;99.90
11922;DHT22;6021;51.182;3.160;2023-06-01T07:45:07;13.20;99.90
11922;DHT22;6021;51.182;3.160;2023-06-01T07:47:36;13.30;99.90
11922;DHT22;6021;51.182;3.160;2023-06-01T07:50:05;13.30;99.90
11922;DHT22;6021;51.182;3.160;2023-06-01T07:52:34;13.30;99.90
11922;DHT22;6021;51.182;3.160;2023-06-01T07:55:03;13.30;99.90
11922;DHT22;6021;51.182;3.160;2023-06-01T07:57:31;13.40;99.90
11922;DHT22;6021;51.182;3.160;2023-06-01T08:00:00;13.40;99.90
11922;DHT22;6021;51.182;3.160;2023-06-01T08:02:28;13.40;99.90
11922;DHT22;6021;51.182;3.160;2023-06-01T08:04:57;13.40;99.90
11922;DHT22;6021;51.182;3.160;2023-06-01T08:07:26;13.30;99.90
11922;DHT22;6021;51.182;3.160;2023-06-01T08:09:57;13.40;99.90
11922;DHT22;6021;51.182;3.160;2023-06-01T08:12:26;13.80;99.90
11922;DHT22;6021;51.182;3.160;2023-06-01T08:14:54;14.10;99.90
11922;DHT22;6021;51.182;3.160;2023-06-01T08:17:24;14.20;99.90
11922;DHT22;6021;51.182;3.160;2023-06-01T08:19:52;14.20;98.60
11922;DHT22;6021;51.182;3.160;2023-06-01T08:22:23;14.30;65.10
11922;DHT22;6021;51.182;3.160;2023-06-01T08:24:51;14.70;52.00
11922;DHT22;6021;51.182;3.160;2023-06-01T08:27:22;14.50;23.50
11922;DHT22;6021;51.182;3.160;2023-06-01T08:29:50;14.40;17.40
11922;DHT22;6021;51.182;3.160;2023-06-01T08:32:19;14.50;12.90
11922;DHT22;6021;51.182;3.160;2023-06-01T08:34:47;14.50;12.70
11922;DHT22;6021;51.182;3.160;2023-06-01T08:37:16;14.50;14.40
11922;DHT22;6021;51.182;3.160;2023-06-01T08:39:44;14.50;1.00
11922;DHT22;6021;51.182;3.160;2023-06-01T08:42:24;14.40;1.00
11922;DHT22;6021;51.182;3.160;2023-06-01T08:44:57;14.70;1.00
11922;DHT22;6021;51.182;3.160;2023-06-01T08:47:24;14.40;1.00
11922;DHT22;6021;51.182;3.160;2023-06-01T08:49:58;14.50;1.00
11922;DHT22;6021;51.182;3.160;2023-06-01T08:52:28;14.80;1.00
11922;DHT22;6021;51.182;3.160;2023-06-01T08:55:00;14.70;1.00
11922;DHT22;6021;51.182;3.160;2023-06-01T08:57:30;14.70;1.00
11922;DHT22;6021;51.182;3.160;2023-06-01T08:59:59;14.80;1.00
11922;DHT22;6021;51.182;3.160;2023-06-01T09:02:28;14.80;1.00
11922;DHT22;6021;51.182;3.160;2023-06-01T09:04:56;15.10;1.00
11922;DHT22;6021;51.182;3.160;2023-06-01T09:07:25;14.90;1.00
11922;DHT22;6021;51.182;3.160;2023-06-01T09:09:55;14.80;1.00
11922;DHT22;6021;51.182;3.160;2023-06-01T09:12:25;14.90;1.00
11922;DHT22;6021;51.182;3.160;2023-06-01T09:15:14;14.70;1.00
11922;DHT22;6021;51.182;3.160;2023-06-01T09:17:40;15.00;1.00
11922;DHT22;6021;51.182;3.160;2023-06-01T09:20:13;15.00;1.00
11922;DHT22;6021;51.182;3.160;2023-06-01T09:22:46;15.20;1.00
11922;DHT22;6021;51.182;3.160;2023-06-01T09:25:14;15.30;1.00
11922;DHT22;6021;51.182;3.160;2023-06-01T09:27:53;15.40;1.00
11922;DHT22;6021;51.182;3.160;2023-06-01T09:30:20;15.20;1.00
11922;DHT22;6021;51.182;3.160;2023-06-01T09:32:49;15.30;1.00
11922;DHT22;6021;51.182;3.160;2023-06-01T09:35:42;15.40;1.00
11922;DHT22;6021;51.182;3.160;2023-06-01T09:38:11;15.40;1.00
11922;DHT22;6021;51.182;3.160;2023-06-01T09:40:39;15.50;1.00
11922;DHT22;6021;51.182;3.160;2023-06-01T09:43:21;15.40;1.00
11922;DHT22;6021;51.182;3.160;2023-06-01T09:46:03;15.40;1.00
11922;DHT22;6021;51.182;3.160;2023-06-01T09:48:33;15.50;1.00
11922;DHT22;6021;51.182;3.160;2023-06-01T09:51:04;15.40;1.00
11922;DHT22;6021;51.182;3.160;2023-06-01T09:53:41;15.30;1.00
11922;DHT22;6021;51.182;3.160;2023-06-01T09:56:11;15.20;1.00
11922;DHT22;6021;51.182;3.160;2023-06-01T09:58:39;15.30;1.00
11922;DHT22;6021;51.182;3.160;2023-06-01T10:01:08;15.30;1.00
11922;DHT22;6021;51.182;3.160;2023-06-01T10:03:40;15.30;1.00
11922;DHT22;6021;51.182;3.160;2023-06-01T10:06:11;15.30;1.00
11922;DHT22;6021;51.182;3.160;2023-06-01T10:08:41;15.40;1.00
11922;DHT22;6021;51.182;3.160;2023-06-01T10:11:10;15.40;1.00
11922;DHT22;6021;51.182;3.160;2023-06-01T10:13:38;15.50;1.00
11922;DHT22;6021;51.182;3.160;2023-06-01T10:16:07;15.40;1.00
11922;DHT22;6021;51.182;3.160;2023-06-01T10:18:36;15.50;1.00
11922;DHT22;6021;51.182;3.160;2023-06-01T10:21:06;15.50;1.00
11922;DHT22;6021;51.182;3.160;2023-06-01T10:23:35;15.50;1.00
11922;DHT22;6021;51.182;3.160;2023-06-01T10:26:09;15.50;1.00
11922;DHT22;6021;51.182;3.160;2023-06-01T10:28:37;15.40;1.00
11922;DHT22;6021;51.182;3.160;2023-06-01T10:31:34;15.40;1.00
11922;DHT22;6021;51.182;3.160;2023-06-01T10:34:04;15.60;1.00
11922;DHT22;6021;51.182;3.160;2023-06-01T10:39:24;15.60;1.00
11922;DHT22;6021;51.182;3.160;2023-06-01T10:41:53;15.60;1.00
11922;DHT22;6021;51.182;3.160;2023-06-01T10:52:36;15.80;1.00
11922;DHT22;6021;51.182;3.160;2023-06-01T10:57:44;15.80;1.00
11922;DHT22;6021;51.182;3.160;2023-06-01T11:00:15;15.70;1.00
11922;DHT22;6021;51.182;3.160;2023-06-01T11:05:38;15.80;1.00
11922;DHT22;6021;51.182;3.160;2023-06-01T11:13:34;16.00;1.00
11922;DHT22;6021;51.182;3.160;2023-06-01T11:21:20;15.60;1.00
11922;DHT22;6021;51.182;3.160;2023-06-01T11:23:52;15.70;1.00
11922;DHT22;6021;51.182;3.160;2023-06-01T11:26:23;16.00;1.00
11922;DHT22;6021;51.182;3.160;2023-06-01T11:29:14;16.00;1.00
11922;DHT22;6021;51.182;3.160;2023-06-01T11:31:46;16.00;1.00
11922;DHT22;6021;51.182;3.160;2023-06-01T11:34:17;16.00;1.00
11922;DHT22;6021;51.182;3.160;2023-06-01T11:36:49;16.00;1.00
11922;DHT22;6021;51.182;3.160;2023-06-01T11:39:27;16.00;1.00
11922;DHT22;6021;51.182;3.160;2023-06-01T11:42:02;16.00;1.00
11922;DHT22;6021;51.182;3.160;2023-06-01T11:44:22;15.90;1.00
11922;DHT22;6021;51.182;3.160;2023-06-01T11:46:53;15.90;1.00
11922;DHT22;6021;51.182;3.160;2023-06-01T11:49:22;15.80;1.00
11922;DHT22;6021;51.182;3.160;2023-06-01T11:51:52;15.70;1.00
11922;DHT22;6021;51.182;3.160;2023-06-01T11:54:24;15.60;1.00
11922;DHT22;6021;51.182;3.160;2023-06-01T11:56:55;16.00;1.00
11922;DHT22;6021;51.182;3.160;2023-06-01T11:59:24;15.80;1.00
11922;DHT22;6021;51.182;3.160;2023-06-01T12:01:52;15.70;1.00
11922;DHT22;6021;51.182;3.160;2023-06-01T12:04:22;15.70;1.00
11922;DHT22;6021;51.182;3.160;2023-06-01T12:07:03;15.70;1.00
11922;DHT22;6021;51.182;3.160;2023-06-01T12:09:33;15.80;1.00
11922;DHT22;6021;51.182;3.160;2023-06-01T12:12:02;15.90;1.00
11922;DHT22;6021;51.182;3.160;2023-06-01T12:14:32;15.70;1.00
11922;DHT22;6021;51.182;3.160;2023-06-01T12:17:01;15.60;1.00
11922;DHT22;6021;51.182;3.160;2023-06-01T12:19:30;15.60;1.00
11922;DHT22;6021;51.182;3.160;2023-06-01T12:21:59;15.50;1.00
11922;DHT22;6021;51.182;3.160;2023-06-01T12:24:29;15.60;1.00
11922;DHT22;6021;51.182;3.160;2023-06-01T12:27:12;15.60;1.00
11922;DHT22;6021;51.182;3.160;2023-06-01T12:29:42;15.60;1.00
11922;DHT22;6021;51.182;3.160;2023-06-01T12:32:17;15.60;1.00
11922;DHT22;6021;51.182;3.160;2023-06-01T12:34:44;15.60;1.00
11922;DHT22;6021;51.182;3.160;2023-06-01T12:37:20;15.60;1.00
11922;DHT22;6021;51.182;3.160;2023-06-01T12:39:55;15.70;1.00
11922;DHT22;6021;51.182;3.160;2023-06-01T12:42:37;15.70;1.00
11922;DHT22;6021;51.182;3.160;2023-06-01T12:45:06;15.60;1.00
11922;DHT22;6021;51.182;3.160;2023-06-01T12:47:36;16.00;1.00
11922;DHT22;6021;51.182;3.160;2023-06-01T12:50:06;15.60;1.00
11922;DHT22;6021;51.182;3.160;2023-06-01T12:52:40;15.60;1.00
11922;DHT22;6021;51.182;3.160;2023-06-01T12:55:10;15.60;1.00
11922;DHT22;6021;51.182;3.160;2023-06-01T12:57:39;15.70;1.00
11922;DHT22;6021;51.182;3.160;2023-06-01T13:00:08;15.80;1.00
11922;DHT22;6021;51.182;3.160;2023-06-01T13:02:38;15.80;1.00
11922;DHT22;6021;51.182;3.160;2023-06-01T13:05:06;15.90;1.00
11922;DHT22;6021;51.182;3.160;2023-06-01T13:07:35;15.90;1.00
11922;DHT22;6021;51.182;3.160;2023-06-01T13:10:04;16.10;1.00
11922;DHT22;6021;51.182;3.160;2023-06-01T13:12:33;16.20;1.00
11922;DHT22;6021;51.182;3.160;2023-06-01T13:15:01;16.20;1.00
11922;DHT22;6021;51.182;3.160;2023-06-01T13:17:30;16.20;1.00
11922;DHT22;6021;51.182;3.160;2023-06-01T13:19:58;16.00;1.00
11922;DHT22;6021;51.182;3.160;2023-06-01T13:22:27;16.00;1.00
11922;DHT22;6021;51.182;3.160;2023-06-01T13:24:55;16.00;1.00
11922;DHT22;6021;51.182;3.160;2023-06-01T13:27:24;15.70;1.00
11922;DHT22;6021;51.182;3.160;2023-06-01T13:29:55;15.60;1.00
11922;DHT22;6021;51.182;3.160;2023-06-01T13:32:24;15.70;1.00
11922;DHT22;6021;51.182;3.160;2023-06-01T13:34:53;15.80;1.00
11922;DHT22;6021;51.182;3.160;2023-06-01T13:37:22;15.90;1.00
11922;DHT22;6021;51.182;3.160;2023-06-01T13:39:51;15.90;1.00
11922;DHT22;6021;51.182;3.160;2023-06-01T13:42:19;16.00;1.00
11922;DHT22;6021;51.182;3.160;2023-06-01T13:44:47;16.00;1.00
11922;DHT22;6021;51.182;3.160;2023-06-01T13:47:16;15.80;1.00
11922;DHT22;6021;51.182;3.160;2023-06-01T13:49:46;15.70;1.00
11922;DHT22;6021;51.182;3.160;2023-06-01T13:52:14;15.70;1.00
11922;DHT22;6021;51.182;3.160;2023-06-01T13:54:43;15.70;1.00
11922;DHT22;6021;51.182;3.160;2023-06-01T13:57:12;15.80;1.00
11922;DHT22;6021;51.182;3.160;2023-06-01T13:59:40;15.80;1.00
11922;DHT22;6021;51.182;3.160;2023-06-01T14:02:08;15.70;1.00
11922;DHT22;6021;51.182;3.160;2023-06-01T14:04:38;15.70;1.00
11922;DHT22;6021;51.182;3.160;2023-06-01T14:07:07;15.70;1.00
11922;DHT22;6021;51.182;3.160;2023-06-01T14:09:35;15.70;1.00
11922;DHT22;6021;51.182;3.160;2023-06-01T14:12:04;15.60;1.00
11922;DHT22;6021;51.182;3.160;2023-06-01T14:14:33;15.50;1.00
11922;DHT22;6021;51.182;3.160;2023-06-01T14:17:01;15.60;1.00
11922;DHT22;6021;51.182;3.160;2023-06-01T14:19:29;15.60;1.00
11922;DHT22;6021;51.182;3.160;2023-06-01T14:21:58;15.40;1.00
11922;DHT22;6021;51.182;3.160;2023-06-01T14:24:26;15.60;1.00
11922;DHT22;6021;51.182;3.160;2023-06-01T14:26:57;15.40;1.00
11922;DHT22;6021;51.182;3.160;2023-06-01T14:29:25;15.50;1.00
11922;DHT22;6021;51.182;3.160;2023-06-01T14:31:54;15.50;1.00
11922;DHT22;6021;51.182;3.160;2023-06-01T14:34:22;15.50;1.00
11922;DHT22;6021;51.182;3.160;2023-06-01T14:36:50;15.50;1.00
11922;DHT22;6021;51.182;3.160;2023-06-01T14:39:19;15.50;1.00
11922;DHT22;6021;51.182;3.160;2023-06-01T14:41:47;15.60;1.00
11922;DHT22;6021;51.182;3.160;2023-06-01T14:44:15;15.60;1.00
11922;DHT22;6021;51.182;3.160;2023-06-01T14:46:44;15.70;1.00
11922;DHT22;6021;51.182;3.160;2023-06-01T14:49:12;15.70;1.00
11922;DHT22;6021;51.182;3.160;2023-06-01T14:51:40;15.80;1.00
11922;DHT22;6021;51.182;3.160;2023-06-01T14:54:09;15.70;1.00
11922;DHT22;6021;51.182;3.160;2023-06-01T14:56:37;15.70;1.00
11922;DHT22;6021;51.182;3.160;2023-06-01T14:59:05;15.70;1.00
11922;DHT22;6021;51.182;3.160;2023-06-01T15:01:35;15.60;1.00
11922;DHT22;6021;51.182;3.160;2023-06-01T15:04:03;15.50;1.00
11922;DHT22;6021;51.182;3.160;2023-06-01T15:06:32;15.50;1.00
11922;DHT22;6021;51.182;3.160;2023-06-01T15:09:02;15.50;1.00
11922;DHT22;6021;51.182;3.160;2023-06-01T15:11:30;15.70;1.00
11922;DHT22;6021;51.182;3.160;2023-06-01T15:13:59;15.60;1.00
11922;DHT22;6021;51.182;3.160;2023-06-01T15:16:27;15.50;1.00
11922;DHT22;6021;51.182;3.160;2023-06-01T15:18:56;15.30;1.00
11922;DHT22;6021;51.182;3.160;2023-06-01T15:21:24;15.30;1.00
11922;DHT22;6021;51.182;3.160;2023-06-01T15:23:53;15.20;1.00
11922;DHT22;6021;51.182;3.160;2023-06-01T15:26:21;15.20;1.00
11922;DHT22;6021;51.182;3.160;2023-06-01T15:28:50;15.50;1.00
11922;DHT22;6021;51.182;3.160;2023-06-01T15:31:18;15.20;1.00
11922;DHT22;6021;51.182;3.160;2023-06-01T15:33:46;15.20;1.00
11922;DHT22;6021;51.182;3.160;2023-06-01T15:36:15;15.60;1.00
11922;DHT22;6021;51.182;3.160;2023-06-01T15:38:43;15.40;1.00
11922;DHT22;6021;51.182;3.160;2023-06-01T15:41:12;15.50;1.00
11922;DHT22;6021;51.182;3.160;2023-06-01T15:43:40;15.50;1.00
11922;DHT22;6021;51.182;3.160;2023-06-01T15:46:08;15.50;1.00
11922;DHT22;6021;51.182;3.160;2023-06-01T15:48:37;15.40;1.00
11922;DHT22;6021;51.182;3.160;2023-06-01T15:51:06;15.30;1.00
11922;DHT22;6021;51.182;3.160;2023-06-01T15:53:35;15.10;1.00
11922;DHT22;6021;51.182;3.160;2023-06-01T15:56:03;15.00;1.00
11922;DHT22;6021;51.182;3.160;2023-06-01T15:58:32;14.90;1.00
11922;DHT22;6021;51.182;3.160;2023-06-01T16:01:00;14.90;1.00
11922;DHT22;6021;51.182;3.160;2023-06-01T16:03:28;14.80;1.00
11922;DHT22;6021;51.182;3.160;2023-06-01T16:05:57;14.90;1.00
11922;DHT22;6021;51.182;3.160;2023-06-01T16:08:25;14.80;1.00
11922;DHT22;6021;51.182;3.160;2023-06-01T16:10:54;14.60;1.00
11922;DHT22;6021;51.182;3.160;2023-06-01T16:13:22;14.70;1.00
11922;DHT22;6021;51.182;3.160;2023-06-01T16:15:51;14.60;1.00
11922;DHT22;6021;51.182;3.160;2023-06-01T16:18:19;14.60;1.00
11922;DHT22;6021;51.182;3.160;2023-06-01T16:20:47;14.60;1.00
11922;DHT22;6021;51.182;3.160;2023-06-01T16:23:16;14.40;1.00
11922;DHT22;6021;51.182;3.160;2023-06-01T16:25:44;14.40;1.00
11922;DHT22;6021;51.182;3.160;2023-06-01T16:28:12;14.30;1.00
11922;DHT22;6021;51.182;3.160;2023-06-01T16:30:41;14.30;1.00
11922;DHT22;6021;51.182;3.160;2023-06-01T16:33:09;14.30;1.00
11922;DHT22;6021;51.182;3.160;2023-06-01T16:35:37;14.30;1.00
11922;DHT22;6021;51.182;3.160;2023-06-01T16:38:06;14.30;2.50
11922;DHT22;6021;51.182;3.160;2023-06-01T16:40:34;14.40;1.00